Time;durP1;ratioP1;P1;durP2;ratioP2;P2;SDS_P1;SDS_P2;PMS_P1;PMS_P2;Temp;Humidity;BMP_temperature;BMP_pressure;BME280_temperature;BME280_humidity;BME280_pressure;Samples;Min_cycle;Max_cycle;Signal;HPM_P1;HPM_P2
2020/12/09 00:01:50;;;;;;;31.17;19.63;;;2.70;99.90;;;;;;4971252;28;20609;-77
2020/12/09 00:04:16;;;;;;;29.30;20.38;;;2.70;99.90;;;;;;4970494;28;20241;-77
2020/12/09 00:06:42;;;;;;;33.00;21.90;;;2.60;99.90;;;;;;4970503;28;20182;-77
2020/12/09 00:09:10;;;;;;;30.55;19.38;;;2.70;99.90;;;;;;4972831;28;20198;-76
2020/12/09 00:11:37;;;;;;;26.52;19.42;;;2.70;99.90;;;;;;4971802;28;20245;-76
2020/12/09 00:14:03;;;;;;;33.97;19.13;;;2.80;99.90;;;;;;4972055;28;20199;-76
2020/12/09 00:16:29;;;;;;;26.02;20.10;;;2.70;99.90;;;;;;4966725;28;20179;-76
2020/12/09 00:18:56;;;;;;;26.27;19.30;;;2.70;99.90;;;;;;4971768;28;20569;-77
2020/12/09 00:21:23;;;;;;;26.92;17.98;;;2.80;99.90;;;;;;4973443;28;20727;-77
2020/12/09 00:23:53;;;;;;;30.05;19.90;;;2.80;99.90;;;;;;4971672;28;20477;-76
2020/12/09 00:26:26;;;;;;;27.38;19.02;;;2.70;99.90;;;;;;4954316;28;20624;-77
2020/12/09 00:28:54;;;;;;;29.55;19.33;;;2.70;99.90;;;;;;4955460;28;20222;-77
2020/12/09 00:31:23;;;;;;;29.38;18.40;;;2.60;99.90;;;;;;4972838;28;20179;-76
2020/12/09 00:33:49;;;;;;;25.15;18.75;;;2.50;99.90;;;;;;4972193;28;20234;-76
2020/12/09 00:36:16;;;;;;;25.60;18.73;;;2.40;99.90;;;;;;4971182;28;20211;-77
2020/12/09 00:38:47;;;;;;;25.85;17.98;;;2.30;99.90;;;;;;4957420;28;20210;-77
2020/12/09 00:41:20;;;;;;;25.15;17.85;;;2.30;99.90;;;;;;4972091;28;20269;-76
2020/12/09 00:43:46;;;;;;;29.17;18.95;;;2.20;99.90;;;;;;4972489;28;20638;-77
2020/12/09 00:46:21;;;;;;;23.60;18.00;;;2.10;99.90;;;;;;4957915;28;20218;-77
2020/12/09 00:48:46;;;;;;;22.02;17.35;;;2.10;99.90;;;;;;4972883;28;20429;-76
2020/12/09 00:51:17;;;;;;;26.53;18.27;;;2.10;99.90;;;;;;4972034;28;20261;-76
2020/12/09 00:53:43;;;;;;;26.83;18.25;;;2.00;99.90;;;;;;4972329;28;20261;-76
2020/12/09 00:56:09;;;;;;;25.63;18.30;;;2.00;99.90;;;;;;4968217;28;20302;-76
2020/12/09 00:58:35;;;;;;;29.10;19.55;;;2.00;99.90;;;;;;4969070;28;20195;-76
2020/12/09 01:01:02;;;;;;;28.73;19.80;;;2.10;99.90;;;;;;4972179;28;20744;-76
2020/12/09 01:03:28;;;;;;;27.98;19.85;;;2.20;99.90;;;;;;4972195;28;20175;-76
2020/12/09 01:05:54;;;;;;;30.07;19.87;;;2.20;99.90;;;;;;4970641;28;20532;-76
2020/12/09 01:08:19;;;;;;;29.33;22.57;;;2.30;99.90;;;;;;4959440;28;20171;-76
2020/12/09 01:10:45;;;;;;;32.27;21.50;;;2.30;99.90;;;;;;4977072;28;20210;-76
2020/12/09 01:13:11;;;;;;;34.90;20.27;;;2.40;99.90;;;;;;4955227;28;20246;-76
2020/12/09 01:15:37;;;;;;;33.80;21.60;;;2.40;99.90;;;;;;4970794;28;20238;-76
2020/12/09 01:18:02;;;;;;;31.63;22.47;;;2.40;99.90;;;;;;4971648;28;20434;-76
2020/12/09 01:20:28;;;;;;;35.10;21.80;;;2.40;99.90;;;;;;4970734;28;20270;-76
2020/12/09 01:22:54;;;;;;;38.27;22.70;;;2.40;99.90;;;;;;4972212;28;20178;-76
2020/12/09 01:25:19;;;;;;;37.23;23.30;;;2.40;99.90;;;;;;4971127;28;20218;-76
2020/12/09 01:27:45;;;;;;;36.20;25.70;;;2.40;99.90;;;;;;4971255;28;20186;-76
2020/12/09 01:30:11;;;;;;;39.50;23.60;;;2.40;99.90;;;;;;4954190;28;20224;-76
2020/12/09 01:32:36;;;;;;;38.77;24.13;;;2.40;99.90;;;;;;4971992;28;20266;-76
2020/12/09 01:35:03;;;;;;;38.60;25.77;;;2.50;99.90;;;;;;4970958;28;20466;-76
2020/12/09 01:37:28;;;;;;;37.47;24.27;;;2.50;99.90;;;;;;4971656;28;20179;-76
2020/12/09 01:39:54;;;;;;;39.87;26.60;;;2.50;99.90;;;;;;4971198;28;20621;-77
2020/12/09 01:42:20;;;;;;;41.03;24.97;;;2.50;99.90;;;;;;4971992;28;20237;-77
2020/12/09 01:44:45;;;;;;;40.00;24.67;;;2.60;99.90;;;;;;4971136;28;20248;-76
2020/12/09 01:47:11;;;;;;;43.03;25.03;;;2.60;99.90;;;;;;4960170;28;20215;-77
2020/12/09 01:49:37;;;;;;;41.30;25.60;;;2.60;99.90;;;;;;4970764;28;20226;-76
2020/12/09 01:52:04;;;;;;;38.80;26.05;;;2.60;99.90;;;;;;4960559;28;20202;-77
2020/12/09 01:54:31;;;;;;;40.15;24.92;;;2.60;99.90;;;;;;4975289;28;20219;-77
2020/12/09 01:57:08;;;;;;;40.88;24.35;;;2.60;99.90;;;;;;4962068;28;20202;-76
2020/12/09 01:59:36;;;;;;;38.67;25.10;;;2.60;99.90;;;;;;4975243;28;20223;-76
2020/12/09 02:02:03;;;;;;;36.40;25.42;;;2.60;99.90;;;;;;4974308;28;20203;-76
2020/12/09 02:04:29;;;;;;;37.05;23.50;;;2.60;99.90;;;;;;4973806;28;20215;-76
2020/12/09 02:06:58;;;;;;;36.83;23.40;;;2.50;99.90;;;;;;4969027;28;20179;-76
2020/12/09 02:09:25;;;;;;;35.78;26.00;;;2.50;99.90;;;;;;4975386;28;20611;-76
2020/12/09 02:11:51;;;;;;;34.40;24.48;;;2.40;99.90;;;;;;4975557;28;20256;-76
2020/12/09 02:14:17;;;;;;;39.35;24.83;;;2.40;99.90;;;;;;4972202;28;20692;-76
2020/12/09 02:16:48;;;;;;;37.97;25.20;;;2.40;99.90;;;;;;4965658;28;20183;-76
2020/12/09 02:19:13;;;;;;;37.63;25.08;;;2.30;99.90;;;;;;4960979;28;20454;-76
2020/12/09 02:21:39;;;;;;;44.73;24.20;;;2.30;99.90;;;;;;4975540;28;20202;-76
2020/12/09 02:24:05;;;;;;;40.53;26.40;;;2.20;99.90;;;;;;4975164;28;20179;-76
2020/12/09 02:26:30;;;;;;;36.13;23.23;;;2.20;99.90;;;;;;4972886;28;20182;-76
2020/12/09 02:28:56;;;;;;;39.37;24.30;;;2.10;99.90;;;;;;4974829;28;20194;-76
2020/12/09 02:31:22;;;;;;;37.20;23.65;;;2.10;99.90;;;;;;4975250;28;20202;-76
2020/12/09 02:33:48;;;;;;;33.73;22.70;;;2.10;99.90;;;;;;4974962;28;20171;-76
2020/12/09 02:36:14;;;;;;;33.95;22.88;;;2.00;99.90;;;;;;4966350;28;20203;-76
2020/12/09 02:38:40;;;;;;;36.40;23.40;;;1.90;99.90;;;;;;4974608;28;20670;-76
2020/12/09 02:41:06;;;;;;;34.87;21.97;;;1.90;99.90;;;;;;4974323;28;20222;-76
2020/12/09 02:43:32;;;;;;;38.13;23.90;;;1.90;99.90;;;;;;4975245;28;20415;-76
2020/12/09 02:45:57;;;;;;;39.77;25.27;;;1.80;99.90;;;;;;4951272;28;20221;-76
2020/12/09 02:48:23;;;;;;;34.37;23.07;;;1.90;99.90;;;;;;4975274;28;20179;-76
2020/12/09 02:50:49;;;;;;;31.93;23.37;;;1.80;99.90;;;;;;4974124;28;20244;-76
2020/12/09 02:53:15;;;;;;;36.60;21.90;;;1.80;99.90;;;;;;4974818;28;20172;-76
2020/12/09 02:55:40;;;;;;;39.50;25.17;;;1.80;99.90;;;;;;4973440;28;20956;-76
2020/12/09 02:58:06;;;;;;;38.50;24.87;;;1.90;99.90;;;;;;4960836;28;20461;-76
2020/12/09 03:00:32;;;;;;;38.00;25.07;;;1.90;99.90;;;;;;4974113;28;20351;-76
2020/12/09 03:02:58;;;;;;;37.60;24.20;;;1.90;99.90;;;;;;4974713;28;20183;-76
2020/12/09 03:05:24;;;;;;;36.58;23.98;;;1.90;99.90;;;;;;4973733;28;20210;-76
2020/12/09 03:07:49;;;;;;;34.57;22.30;;;1.90;99.90;;;;;;4963398;28;20230;-76
2020/12/09 03:10:15;;;;;;;37.03;24.10;;;2.00;99.90;;;;;;4972711;28;20257;-76
2020/12/09 03:12:41;;;;;;;37.53;23.07;;;2.00;99.90;;;;;;4974350;28;20179;-76
2020/12/09 03:15:06;;;;;;;40.03;24.13;;;2.00;99.90;;;;;;4972726;28;20207;-76
2020/12/09 03:17:32;;;;;;;41.97;24.73;;;1.90;99.90;;;;;;4976552;28;20179;-76
2020/12/09 03:19:58;;;;;;;40.87;26.30;;;1.90;99.90;;;;;;4972940;28;20229;-76
2020/12/09 03:22:23;;;;;;;36.90;24.00;;;1.90;99.90;;;;;;4974039;28;20199;-76
2020/12/09 03:24:49;;;;;;;37.50;24.27;;;1.90;99.90;;;;;;4972866;28;20222;-76
2020/12/09 03:27:15;;;;;;;38.53;22.07;;;1.90;99.90;;;;;;4961757;28;20216;-76
2020/12/09 03:29:40;;;;;;;35.97;24.07;;;1.80;99.90;;;;;;4970779;28;20297;-76
2020/12/09 03:32:06;;;;;;;36.13;24.30;;;1.80;99.90;;;;;;4973781;28;20573;-76
2020/12/09 03:34:32;;;;;;;41.03;23.27;;;1.70;99.90;;;;;;4973152;28;20219;-76
2020/12/09 03:36:57;;;;;;;36.90;24.80;;;1.70;99.90;;;;;;4973095;28;20187;-76
2020/12/09 03:39:23;;;;;;;42.57;24.07;;;1.70;99.90;;;;;;4973329;28;20222;-76
2020/12/09 03:41:48;;;;;;;40.03;23.60;;;1.70;99.90;;;;;;4956478;28;20230;-76
2020/12/09 03:44:14;;;;;;;39.13;24.63;;;1.70;99.90;;;;;;4973495;28;20222;-76
2020/12/09 03:46:40;;;;;;;40.83;24.20;;;1.70;99.90;;;;;;4966524;28;20656;-76
2020/12/09 03:49:07;;;;;;;44.73;26.63;;;1.60;99.90;;;;;;4956008;28;20182;-76
2020/12/09 03:51:33;;;;;;;41.00;24.55;;;1.70;99.90;;;;;;4973778;28;20221;-76
2020/12/09 03:53:58;;;;;;;39.60;23.30;;;1.60;99.90;;;;;;4956318;28;20203;-76
2020/12/09 03:56:24;;;;;;;38.17;24.70;;;1.60;99.90;;;;;;4972572;28;20167;-76
2020/12/09 03:58:50;;;;;;;39.17;24.23;;;1.70;99.90;;;;;;4965211;28;20318;-76
2020/12/09 04:01:17;;;;;;;41.33;23.40;;;1.60;99.90;;;;;;4973096;28;20207;-76
2020/12/09 04:03:44;;;;;;;38.90;23.05;;;1.60;99.90;;;;;;4972625;28;20175;-76
2020/12/09 04:06:09;;;;;;;41.55;24.15;;;1.60;99.90;;;;;;4972237;28;20203;-76
2020/12/09 04:08:35;;;;;;;35.53;21.90;;;1.60;99.90;;;;;;4967456;28;20314;-76
2020/12/09 04:11:01;;;;;;;38.17;23.80;;;1.50;99.90;;;;;;4971957;28;20238;-76
2020/12/09 04:13:26;;;;;;;36.27;23.80;;;1.50;99.90;;;;;;4973408;28;20709;-76
2020/12/09 04:15:52;;;;;;;44.93;24.80;;;1.40;99.90;;;;;;4971305;28;20217;-76
2020/12/09 04:18:17;;;;;;;39.40;24.83;;;1.40;99.90;;;;;;4960010;28;20262;-76
2020/12/09 04:20:43;;;;;;;40.17;24.23;;;1.40;99.90;;;;;;4955255;28;20250;-76
2020/12/09 04:23:09;;;;;;;40.50;24.20;;;1.30;99.90;;;;;;4972897;28;20202;-76
2020/12/09 04:25:34;;;;;;;40.67;24.93;;;1.30;99.90;;;;;;4970939;28;20207;-76
2020/12/09 04:28:00;;;;;;;42.97;26.03;;;1.30;99.90;;;;;;4972120;28;20183;-76
2020/12/09 04:30:26;;;;;;;38.13;25.13;;;1.30;99.90;;;;;;4972499;28;20230;-76
2020/12/09 04:32:51;;;;;;;42.00;25.47;;;1.40;99.90;;;;;;4972892;28;20214;-75
2020/12/09 04:35:17;;;;;;;42.97;26.23;;;1.50;99.90;;;;;;4970849;28;20207;-76
2020/12/09 04:37:45;;;;;;;46.20;26.73;;;1.60;99.90;;;;;;4971463;28;20435;-76
2020/12/09 04:40:11;;;;;;;46.63;27.00;;;1.70;99.90;;;;;;4972424;28;20246;-76
2020/12/09 04:42:37;;;;;;;43.88;27.23;;;1.70;99.90;;;;;;4972538;28;20210;-76
2020/12/09 04:45:03;;;;;;;47.03;28.17;;;1.80;99.90;;;;;;4971018;28;20230;-76
2020/12/09 04:47:45;;;;;;;43.55;25.65;;;1.80;99.90;;;;;;4972028;28;20202;-76
2020/12/09 04:50:13;;;;;;;48.13;28.00;;;1.80;99.90;;;;;;4957325;28;20211;-76
2020/12/09 04:53:10;;;;;;;40.53;26.08;;;1.80;99.90;;;;;;4972452;28;20175;-76
2020/12/09 04:55:49;;;;;;;44.13;26.25;;;1.80;99.90;;;;;;4956038;28;20481;-76
2020/12/09 04:58:21;;;;;;;44.55;26.35;;;1.80;99.90;;;;;;4972680;28;20257;-76
2020/12/09 05:00:48;;;;;;;44.33;27.50;;;1.80;99.90;;;;;;4971369;28;20219;-76
2020/12/09 05:03:19;;;;;;;42.75;27.58;;;1.90;99.90;;;;;;4972488;28;20164;-76
2020/12/09 05:05:46;;;;;;;44.15;27.13;;;1.90;99.90;;;;;;4970990;28;20677;-76
2020/12/09 05:08:21;;;;;;;44.53;25.33;;;1.90;99.90;;;;;;4972153;28;20171;-76
2020/12/09 05:10:49;;;;;;;46.30;26.83;;;1.90;99.90;;;;;;4971645;28;20577;-76
2020/12/09 05:13:23;;;;;;;42.13;27.77;;;2.00;99.90;;;;;;4974699;28;20175;-76
2020/12/09 05:15:56;;;;;;;42.13;29.80;;;2.00;99.90;;;;;;4962773;28;20211;-76
2020/12/09 05:18:34;;;;;;;39.85;26.60;;;2.00;99.90;;;;;;4959198;28;20159;-76
2020/12/09 05:21:11;;;;;;;44.97;25.65;;;2.10;99.90;;;;;;4971734;28;20689;-76
2020/12/09 05:23:46;;;;;;;43.83;26.80;;;2.20;99.90;;;;;;4971193;28;20167;-76
2020/12/09 05:26:17;;;;;;;41.35;25.70;;;2.20;99.90;;;;;;4970690;28;20206;-76
2020/12/09 05:28:43;;;;;;;44.33;25.67;;;2.10;99.90;;;;;;4971905;28;20198;-76
2020/12/09 05:31:19;;;;;;;47.13;27.10;;;2.20;99.90;;;;;;4954413;28;20218;-76
2020/12/09 05:33:45;;;;;;;41.58;26.13;;;2.20;99.90;;;;;;4971992;28;20171;-77
2020/12/09 05:36:10;;;;;;;44.13;28.83;;;2.20;99.90;;;;;;4967467;28;20556;-76
2020/12/09 05:38:36;;;;;;;45.77;28.20;;;2.40;99.90;;;;;;4968833;28;20199;-76
2020/12/09 05:41:10;;;;;;;36.37;24.83;;;2.40;99.90;;;;;;4971269;28;20211;-76
2020/12/09 05:43:42;;;;;;;44.00;26.10;;;2.40;99.90;;;;;;4972005;28;20167;-76
2020/12/09 05:46:11;;;;;;;38.05;24.95;;;2.40;99.90;;;;;;4956275;28;20203;-76
2020/12/09 05:48:37;;;;;;;44.58;28.08;;;2.30;99.90;;;;;;4971958;28;20273;-76
2020/12/09 05:51:03;;;;;;;41.78;27.17;;;2.30;99.90;;;;;;4971244;28;20698;-77
2020/12/09 05:53:32;;;;;;;35.78;23.60;;;2.30;99.90;;;;;;4971553;28;20179;-77
2020/12/09 05:56:15;;;;;;;41.30;27.00;;;2.30;99.90;;;;;;4969124;28;20688;-77
2020/12/09 05:59:00;;;;;;;40.83;25.63;;;2.20;99.90;;;;;;4961458;28;20186;-77
2020/12/09 06:01:26;;;;;;;38.80;24.80;;;2.20;99.90;;;;;;4970455;28;20716;-77
2020/12/09 06:03:53;;;;;;;36.67;24.07;;;2.20;99.90;;;;;;4971386;28;20195;-77
2020/12/09 06:06:27;;;;;;;37.22;26.58;;;2.20;99.90;;;;;;4970399;28;20964;-77
2020/12/09 06:08:59;;;;;;;39.63;26.52;;;2.20;99.90;;;;;;4971570;28;20522;-77
2020/12/09 06:11:30;;;;;;;38.35;24.45;;;2.10;99.90;;;;;;4971603;28;20666;-77
2020/12/09 06:13:56;;;;;;;36.47;26.58;;;2.10;99.90;;;;;;4970457;28;20180;-77
2020/12/09 06:16:23;;;;;;;36.47;25.10;;;2.10;99.90;;;;;;4970492;28;20266;-77
2020/12/09 06:18:53;;;;;;;38.20;25.08;;;2.10;99.90;;;;;;4971670;28;20538;-77
2020/12/09 06:21:20;;;;;;;39.50;25.58;;;2.10;99.90;;;;;;4971053;28;20208;-77
2020/12/09 06:23:48;;;;;;;44.47;27.85;;;2.10;99.90;;;;;;4971114;28;20540;-77
2020/12/09 06:26:14;;;;;;;36.45;25.42;;;2.10;99.90;;;;;;4962154;28;20196;-77
2020/12/09 06:28:48;;;;;;;42.70;28.77;;;2.10;99.90;;;;;;4965025;28;20602;-76
2020/12/09 06:31:13;;;;;;;43.35;27.50;;;2.10;99.90;;;;;;4970767;28;20697;-77
2020/12/09 06:33:43;;;;;;;38.33;26.67;;;2.10;99.90;;;;;;4970486;28;20226;-77
2020/12/09 06:36:16;;;;;;;47.60;27.95;;;2.10;99.90;;;;;;4971501;28;20212;-77
2020/12/09 06:39:05;;;;;;;39.17;25.98;;;2.10;99.90;;;;;;4974886;28;20175;-77
2020/12/09 06:41:35;;;;;;;43.22;27.15;;;2.00;99.90;;;;;;4974928;28;20307;-77
2020/12/09 06:44:11;;;;;;;41.13;26.67;;;2.00;99.90;;;;;;4971593;28;20210;-77
2020/12/09 06:46:47;;;;;;;38.65;26.27;;;2.00;99.90;;;;;;4957298;28;20186;-77
2020/12/09 06:49:31;;;;;;;39.17;25.77;;;2.00;99.90;;;;;;4968206;28;20541;-76
2020/12/09 06:52:10;;;;;;;36.92;24.27;;;2.00;99.90;;;;;;4974760;28;20286;-76
2020/12/09 06:54:47;;;;;;;34.53;23.00;;;2.00;99.90;;;;;;4973665;28;20624;-76
2020/12/09 06:57:35;;;;;;;37.63;23.80;;;1.90;99.90;;;;;;4971247;28;20179;-76
2020/12/09 07:00:11;;;;;;;40.88;25.45;;;1.80;99.90;;;;;;4956593;28;20219;-76
2020/12/09 07:02:40;;;;;;;37.35;24.45;;;1.80;99.90;;;;;;4975037;28;20210;-76
2020/12/09 07:05:13;;;;;;;41.35;25.00;;;1.70;99.90;;;;;;4969150;28;20208;-76
2020/12/09 07:07:44;;;;;;;42.92;25.17;;;1.70;99.90;;;;;;4957066;28;20183;-76
2020/12/09 07:10:19;;;;;;;45.05;24.98;;;1.70;99.90;;;;;;4974215;28;20206;-76
2020/12/09 07:12:50;;;;;;;34.08;24.08;;;1.60;99.90;;;;;;4956992;28;20221;-77
2020/12/09 07:15:16;;;;;;;43.08;26.38;;;1.60;99.90;;;;;;4969673;28;20240;-76
2020/12/09 07:17:42;;;;;;;36.85;25.02;;;1.50;99.90;;;;;;4973582;28;20777;-77
2020/12/09 07:20:09;;;;;;;37.17;24.77;;;1.50;99.90;;;;;;4973282;28;20273;-77
2020/12/09 07:22:38;;;;;;;39.50;25.73;;;1.40;99.90;;;;;;4974158;28;20167;-76
2020/12/09 07:25:04;;;;;;;43.25;26.27;;;1.40;99.90;;;;;;4970450;28;20685;-76
2020/12/09 07:27:29;;;;;;;44.33;25.83;;;1.30;99.90;;;;;;4956747;28;20293;-78
2020/12/09 07:30:03;;;;;;;39.60;24.43;;;1.30;99.90;;;;;;4959919;28;20211;-77
2020/12/09 07:32:29;;;;;;;35.85;25.30;;;1.30;99.90;;;;;;4974218;28;20531;-77
2020/12/09 07:35:12;;;;;;;42.53;27.73;;;1.30;99.90;;;;;;4973184;28;20218;-77
2020/12/09 07:37:44;;;;;;;42.45;26.52;;;1.30;99.90;;;;;;4973647;28;20171;-78
2020/12/09 07:40:27;;;;;;;42.00;26.50;;;1.30;99.90;;;;;;4973379;28;20227;-77
2020/12/09 07:43:10;;;;;;;44.80;27.55;;;1.30;99.90;;;;;;4973988;28;20184;-77
2020/12/09 07:45:40;;;;;;;41.33;24.75;;;1.20;99.90;;;;;;4972483;28;20215;-77
2020/12/09 07:48:12;;;;;;;37.80;26.02;;;1.20;99.90;;;;;;4970944;28;20179;-77
2020/12/09 07:50:39;;;;;;;39.25;26.58;;;1.10;99.90;;;;;;4972438;28;20215;-76
2020/12/09 07:53:11;;;;;;;37.22;25.60;;;1.10;99.90;;;;;;4972941;28;20306;-76
2020/12/09 07:55:37;;;;;;;43.28;28.60;;;1.00;99.90;;;;;;4971853;28;20211;-76
2020/12/09 07:58:11;;;;;;;44.45;29.60;;;1.00;99.90;;;;;;4959001;28;20180;-77
2020/12/09 08:00:39;;;;;;;46.67;30.40;;;1.00;99.90;;;;;;4972176;28;20226;-78
2020/12/09 08:03:06;;;;;;;48.70;29.35;;;1.00;99.90;;;;;;4973264;28;20225;-77
2020/12/09 08:05:36;;;;;;;41.83;28.75;;;1.00;99.90;;;;;;4972994;28;20285;-77
2020/12/09 08:08:05;;;;;;;48.80;28.77;;;1.00;99.90;;;;;;4969100;28;20179;-77
2020/12/09 08:10:33;;;;;;;46.80;30.08;;;0.90;99.90;;;;;;4972933;28;20239;-77
2020/12/09 08:13:01;;;;;;;43.95;29.55;;;0.90;99.90;;;;;;4971602;28;20209;-77
2020/12/09 08:15:27;;;;;;;41.95;28.15;;;0.90;99.90;;;;;;4972205;28;20213;-76
2020/12/09 08:17:52;;;;;;;42.67;28.00;;;0.90;99.90;;;;;;4948709;28;20553;-76
2020/12/09 08:20:18;;;;;;;42.70;26.97;;;0.90;99.90;;;;;;4972341;28;20881;-77
2020/12/09 08:22:59;;;;;;;40.47;26.00;;;1.00;99.90;;;;;;4972949;28;20258;-77
2020/12/09 08:25:27;;;;;;;43.70;27.90;;;0.90;99.90;;;;;;4968129;28;20388;-76
2020/12/09 08:27:54;;;;;;;44.53;27.33;;;1.00;99.90;;;;;;4966369;28;20176;-77
2020/12/09 08:30:26;;;;;;;44.08;28.08;;;1.00;99.90;;;;;;4972352;28;20652;-77
2020/12/09 08:32:55;;;;;;;41.50;27.60;;;1.00;99.90;;;;;;4963648;28;20187;-77
2020/12/09 08:35:21;;;;;;;39.70;25.60;;;1.00;99.90;;;;;;4966891;28;20741;-77
2020/12/09 08:37:46;;;;;;;40.75;28.80;;;1.10;99.90;;;;;;4964435;28;20562;-77
2020/12/09 08:40:12;;;;;;;49.30;30.93;;;1.10;99.90;;;;;;4971986;28;20207;-77
2020/12/09 08:42:38;;;;;;;48.03;29.60;;;1.20;99.90;;;;;;4972542;28;20318;-77
2020/12/09 08:45:04;;;;;;;44.47;29.50;;;1.20;99.90;;;;;;4951297;28;20633;-76
2020/12/09 08:47:30;;;;;;;47.47;30.92;;;1.20;99.90;;;;;;4966737;28;20183;-77
2020/12/09 08:49:55;;;;;;;43.00;28.30;;;1.30;99.90;;;;;;4954736;28;20516;-76
2020/12/09 08:52:21;;;;;;;54.27;29.60;;;1.30;99.90;;;;;;4971339;28;20230;-77
2020/12/09 08:54:52;;;;;;;50.08;29.60;;;1.30;99.90;;;;;;4972262;28;20259;-76
2020/12/09 08:57:18;;;;;;;50.60;30.20;;;1.40;99.90;;;;;;4971441;28;20658;-76
2020/12/09 08:59:43;;;;;;;56.20;32.50;;;1.50;99.90;;;;;;4970490;28;20618;-76
2020/12/09 09:02:09;;;;;;;47.90;29.37;;;1.50;99.90;;;;;;4972876;28;20250;-76
2020/12/09 09:04:35;;;;;;;49.77;30.30;;;1.60;99.90;;;;;;4972246;28;20632;-76
2020/12/09 09:07:02;;;;;;;47.38;29.70;;;1.60;99.90;;;;;;4971920;28;20186;-77
2020/12/09 09:09:27;;;;;;;42.88;27.13;;;1.60;99.90;;;;;;4971561;28;20227;-77
2020/12/09 09:11:56;;;;;;;39.30;22.93;;;1.70;99.90;;;;;;4971893;28;20231;-77
2020/12/09 09:14:22;;;;;;;35.38;22.75;;;1.70;99.90;;;;;;4950734;28;20555;-76
2020/12/09 09:16:48;;;;;;;31.10;19.87;;;1.90;99.90;;;;;;4964241;28;20234;-77
2020/12/09 09:19:13;;;;;;;30.30;19.23;;;2.00;99.90;;;;;;4973670;28;20475;-76
2020/12/09 09:21:40;;;;;;;31.33;19.70;;;2.10;99.90;;;;;;4972522;28;20688;-76
2020/12/09 09:24:06;;;;;;;30.45;20.38;;;2.10;99.90;;;;;;4953398;28;20167;-77
2020/12/09 09:26:36;;;;;;;36.77;21.70;;;2.20;99.90;;;;;;4962250;28;20218;-77
2020/12/09 09:29:02;;;;;;;32.65;19.65;;;2.20;99.90;;;;;;4971997;28;20438;-76
2020/12/09 09:31:28;;;;;;;33.15;22.00;;;2.20;99.90;;;;;;4972452;28;20194;-77
2020/12/09 09:33:54;;;;;;;37.00;23.53;;;2.20;99.90;;;;;;4970597;28;20167;-77
2020/12/09 09:36:19;;;;;;;33.37;19.20;;;2.20;99.90;;;;;;4970021;28;20163;-77
2020/12/09 09:38:45;;;;;;;32.63;20.80;;;2.20;99.90;;;;;;4971771;28;20681;-77
2020/12/09 09:41:11;;;;;;;30.67;20.17;;;2.20;99.90;;;;;;4969982;28;20218;-77
2020/12/09 09:43:37;;;;;;;29.80;18.70;;;2.30;99.90;;;;;;4954060;28;20611;-77
2020/12/09 09:46:02;;;;;;;31.33;19.10;;;2.30;99.90;;;;;;4966949;28;20215;-77
2020/12/09 09:48:28;;;;;;;26.00;17.40;;;2.30;99.90;;;;;;4967658;28;20539;-77
2020/12/09 09:50:54;;;;;;;26.47;17.90;;;2.40;99.90;;;;;;4971460;28;20693;-77
2020/12/09 09:53:20;;;;;;;24.83;16.83;;;2.40;99.90;;;;;;4965252;28;20627;-77
2020/12/09 09:55:46;;;;;;;26.93;17.27;;;2.50;99.90;;;;;;4953069;28;20684;-77
2020/12/09 09:58:11;;;;;;;26.63;18.13;;;2.60;99.90;;;;;;4954533;28;20434;-77
2020/12/09 10:00:37;;;;;;;24.53;15.93;;;2.60;99.90;;;;;;4970893;28;20478;-77
2020/12/09 10:03:03;;;;;;;26.23;16.27;;;2.70;99.90;;;;;;4972107;28;20268;-77
2020/12/09 10:05:29;;;;;;;25.38;15.77;;;2.70;99.90;;;;;;4967752;28;20226;-77
2020/12/09 10:07:55;;;;;;;26.33;16.30;;;2.80;99.90;;;;;;4968172;28;20183;-77
2020/12/09 10:10:20;;;;;;;30.37;17.57;;;2.80;99.90;;;;;;4971881;28;20563;-77
2020/12/09 10:12:46;;;;;;;35.70;22.77;;;2.90;99.90;;;;;;4974014;28;20180;-77
2020/12/09 10:15:12;;;;;;;27.47;19.07;;;2.90;99.90;;;;;;4973818;28;20199;-77
2020/12/09 10:17:38;;;;;;;26.80;16.90;;;2.90;99.90;;;;;;4969418;28;20964;-77
2020/12/09 10:20:03;;;;;;;35.80;19.07;;;2.90;99.90;;;;;;4975446;28;20231;-77
2020/12/09 10:22:29;;;;;;;23.90;15.17;;;2.80;99.90;;;;;;4975284;28;20442;-78
2020/12/09 10:24:56;;;;;;;30.70;18.90;;;2.80;99.90;;;;;;4952260;28;20221;-78
2020/12/09 10:27:21;;;;;;;33.33;17.40;;;2.80;99.90;;;;;;4962632;28;20180;-77
2020/12/09 10:29:47;;;;;;;27.73;17.00;;;2.80;99.90;;;;;;4972346;28;20309;-77
2020/12/09 10:32:13;;;;;;;25.98;15.80;;;2.80;99.90;;;;;;4975348;28;20246;-77
2020/12/09 10:34:40;;;;;;;27.13;16.90;;;2.80;99.90;;;;;;4973820;28;20222;-77
2020/12/09 10:37:07;;;;;;;26.42;15.93;;;2.80;99.90;;;;;;4974714;28;20210;-77
2020/12/09 10:39:33;;;;;;;25.73;16.10;;;2.90;99.90;;;;;;4974870;28;20223;-77
2020/12/09 10:41:59;;;;;;;25.60;16.42;;;2.90;99.90;;;;;;4974824;28;20569;-77
2020/12/09 10:44:24;;;;;;;24.93;15.37;;;3.00;99.90;;;;;;4975064;28;20218;-77
2020/12/09 10:46:50;;;;;;;24.80;17.23;;;2.90;99.90;;;;;;4967986;28;20845;-78
2020/12/09 10:49:16;;;;;;;26.40;15.20;;;3.00;99.90;;;;;;4974337;28;20298;-77
2020/12/09 10:51:49;;;;;;;21.83;15.83;;;3.10;99.90;;;;;;4974379;28;20565;-79
2020/12/09 10:54:15;;;;;;;22.63;16.02;;;3.30;99.90;;;;;;4973866;28;20682;-78
2020/12/09 10:56:41;;;;;;;22.83;16.05;;;3.30;99.90;;;;;;4950115;28;20194;-78
2020/12/09 10:59:07;;;;;;;27.08;16.88;;;3.40;99.90;;;;;;4955987;28;20199;-77
2020/12/09 11:01:33;;;;;;;24.60;15.00;;;3.50;99.90;;;;;;4974707;28;20191;-77
2020/12/09 11:04:00;;;;;;;20.27;15.17;;;3.60;99.90;;;;;;4973265;28;20419;-77
2020/12/09 11:06:28;;;;;;;24.00;16.42;;;3.60;99.90;;;;;;4969174;28;20168;-77
2020/12/09 11:08:54;;;;;;;24.88;17.25;;;3.70;99.90;;;;;;4964787;28;20175;-77
2020/12/09 11:11:21;;;;;;;27.10;16.88;;;3.70;99.90;;;;;;4974368;28;20202;-77
2020/12/09 11:13:47;;;;;;;24.10;16.45;;;3.70;99.90;;;;;;4974337;28;20211;-77
2020/12/09 11:16:17;;;;;;;25.73;16.10;;;3.70;99.90;;;;;;4969371;28;20227;-77
2020/12/09 11:18:43;;;;;;;24.30;16.35;;;3.80;99.90;;;;;;4974198;28;20422;-77
2020/12/09 11:21:09;;;;;;;24.77;15.00;;;3.80;99.90;;;;;;4972136;28;20211;-77
2020/12/09 11:23:36;;;;;;;24.85;16.40;;;3.80;99.90;;;;;;4973725;28;20175;-77
2020/12/09 11:26:02;;;;;;;27.55;16.83;;;3.80;99.90;;;;;;4971351;28;20285;-77
2020/12/09 11:28:27;;;;;;;26.92;17.88;;;3.90;99.90;;;;;;4951770;28;20270;-78
2020/12/09 11:30:53;;;;;;;25.07;16.50;;;3.80;99.90;;;;;;4973263;28;20219;-77
2020/12/09 11:33:19;;;;;;;27.90;16.63;;;3.90;99.90;;;;;;4973412;28;20187;-77
2020/12/09 11:35:45;;;;;;;27.80;18.60;;;3.80;99.90;;;;;;4965216;28;20258;-79
2020/12/09 11:38:10;;;;;;;26.30;16.33;;;3.80;99.90;;;;;;4959950;28;20582;-77
2020/12/09 11:40:36;;;;;;;25.40;17.03;;;3.80;99.90;;;;;;4955933;28;20235;-77
2020/12/09 11:43:02;;;;;;;30.57;17.57;;;4.00;99.90;;;;;;4973506;28;20205;-77
2020/12/09 11:45:28;;;;;;;25.57;17.63;;;4.10;99.90;;;;;;4972660;28;20682;-77
2020/12/09 11:47:53;;;;;;;23.37;15.37;;;4.00;99.90;;;;;;4972857;28;20187;-77
2020/12/09 11:50:19;;;;;;;23.03;17.50;;;3.90;99.90;;;;;;4972820;28;20230;-77
2020/12/09 11:52:45;;;;;;;25.02;16.13;;;3.90;99.90;;;;;;4973520;28;20171;-77
2020/12/09 11:55:12;;;;;;;24.70;17.80;;;3.80;99.90;;;;;;4972399;28;20226;-77
2020/12/09 11:57:38;;;;;;;28.60;19.00;;;3.90;99.90;;;;;;4972651;28;20203;-77
2020/12/09 12:00:04;;;;;;;24.17;15.80;;;3.90;99.90;;;;;;4972782;28;20250;-76
2020/12/09 12:02:30;;;;;;;20.60;15.85;;;3.90;99.90;;;;;;4972741;28;21003;-76
2020/12/09 12:04:56;;;;;;;24.40;15.40;;;3.90;99.90;;;;;;4972719;28;20215;-77
2020/12/09 12:07:22;;;;;;;24.33;16.58;;;3.90;99.90;;;;;;4959711;28;20435;-77
2020/12/09 12:09:48;;;;;;;22.50;15.43;;;3.90;99.90;;;;;;4973594;28;20238;-76
2020/12/09 12:12:14;;;;;;;25.23;16.00;;;3.90;99.90;;;;;;4973916;28;20602;-76
2020/12/09 12:14:40;;;;;;;24.17;16.13;;;4.00;99.90;;;;;;4969919;28;20725;-77
2020/12/09 12:17:08;;;;;;;20.53;14.20;;;4.00;99.90;;;;;;4963058;28;20199;-76
2020/12/09 12:19:35;;;;;;;22.10;15.98;;;4.00;99.90;;;;;;4972173;28;20545;-77
2020/12/09 12:22:02;;;;;;;29.52;19.08;;;4.00;99.90;;;;;;4972986;28;20198;-76
2020/12/09 12:24:28;;;;;;;29.83;19.38;;;4.00;99.90;;;;;;4972565;28;20261;-77
2020/12/09 12:26:53;;;;;;;33.70;18.60;;;4.00;99.90;;;;;;4965748;28;20246;-76
2020/12/09 12:29:19;;;;;;;29.50;20.60;;;4.00;99.90;;;;;;4971820;28;20222;-76
2020/12/09 12:31:45;;;;;;;28.70;18.80;;;4.00;99.90;;;;;;4972963;28;20325;-76
2020/12/09 12:34:11;;;;;;;25.87;17.73;;;4.10;99.90;;;;;;4971294;28;20549;-76
2020/12/09 12:36:37;;;;;;;22.43;14.00;;;4.10;99.90;;;;;;4967972;28;20647;-77
2020/12/09 12:39:03;;;;;;;21.35;16.42;;;4.10;99.90;;;;;;4972345;28;20450;-76